Time;durP1;ratioP1;P1;durP2;ratioP2;P2;SDS_P1;SDS_P2;PMS_P1;PMS_P2;Temp;Humidity;BMP_temperature;BMP_pressure;BME280_temperature;BME280_humidity;BME280_pressure;Samples;Min_cycle;Max_cycle;Signal;HPM_P1;HPM_P2
2021/04/15 00:01:11;;;;;;;4.35;1.50;;;3.10;83.40;;;;;;5859791;40;20039;-69
2021/04/15 00:05:25;;;;;;;3.58;1.33;;;3.10;83.30;;;;;;5852076;40;20061;-69
2021/04/15 00:09:28;;;;;;;3.97;1.60;;;3.10;83.10;;;;;;5859988;40;20411;-69
2021/04/15 00:13:41;;;;;;;3.88;1.60;;;3.00;82.80;;;;;;5860710;40;20051;-69
2021/04/15 00:17:46;;;;;;;4.07;1.42;;;3.00;82.90;;;;;;5852588;40;20407;-69
2021/04/15 00:21:50;;;;;;;4.22;1.42;;;2.90;82.70;;;;;;5861485;40;20054;-69
2021/04/15 00:25:54;;;;;;;3.15;1.60;;;2.90;82.70;;;;;;5842952;40;20054;-69
2021/04/15 00:30:02;;;;;;;2.72;1.50;;;2.90;82.60;;;;;;5851054;40;20337;-68
2021/04/15 00:34:07;;;;;;;4.07;2.05;;;2.90;82.60;;;;;;5844527;40;20064;-68
2021/04/15 00:38:10;;;;;;;3.35;1.75;;;2.80;82.50;;;;;;5849703;40;20058;-68
2021/04/15 00:42:14;;;;;;;2.63;1.63;;;2.80;83.20;;;;;;5841266;40;20054;-68
2021/04/15 00:46:52;;;;;;;4.68;1.60;;;2.80;82.60;;;;;;5848141;40;20241;-68
2021/04/15 00:51:23;;;;;;;2.95;1.80;;;2.70;82.70;;;;;;5849939;40;20050;-67
2021/04/15 00:55:30;;;;;;;2.78;1.50;;;2.70;82.50;;;;;;5847842;40;20376;-68
2021/04/15 00:59:36;;;;;;;3.75;1.90;;;2.60;82.00;;;;;;5846420;40;20459;-68
2021/04/15 01:03:43;;;;;;;3.35;1.70;;;2.60;82.60;;;;;;5859452;40;20144;-66
2021/04/15 01:07:49;;;;;;;3.92;2.03;;;2.60;82.70;;;;;;5859428;40;20423;-69
2021/04/15 01:12:22;;;;;;;4.15;1.75;;;2.60;82.70;;;;;;5858618;40;20425;-68
2021/04/15 01:16:37;;;;;;;3.13;2.00;;;2.50;82.80;;;;;;5860565;40;20634;-68
2021/04/15 01:21:12;;;;;;;3.70;2.03;;;2.50;82.70;;;;;;5852846;40;20065;-67
2021/04/15 01:25:25;;;;;;;7.40;2.10;;;2.40;82.70;;;;;;5841468;40;20464;-68
2021/04/15 01:30:01;;;;;;;4.30;2.22;;;2.40;82.60;;;;;;5860465;40;20050;-68
2021/04/15 01:34:16;;;;;;;3.90;2.17;;;2.20;82.00;;;;;;5854065;40;20078;-67
2021/04/15 01:38:27;;;;;;;4.20;2.00;;;2.20;82.00;;;;;;5849802;40;20034;-68
2021/04/15 01:42:55;;;;;;;4.32;1.90;;;2.10;81.80;;;;;;5850789;40;20074;-67
2021/04/15 01:47:05;;;;;;;5.20;1.98;;;2.10;82.80;;;;;;5850798;40;20057;-67
2021/04/15 01:51:26;;;;;;;4.82;2.22;;;2.10;82.80;;;;;;5850892;40;20067;-69
2021/04/15 01:55:36;;;;;;;3.67;2.10;;;2.00;82.80;;;;;;5852904;40;20058;-68
2021/04/15 01:59:53;;;;;;;5.75;2.85;;;1.90;82.20;;;;;;5846135;40;20053;-69
2021/04/15 02:04:01;;;;;;;4.70;2.10;;;1.90;82.80;;;;;;5844598;40;20046;-69
2021/04/15 02:08:11;;;;;;;5.75;2.17;;;1.90;82.80;;;;;;5851116;40;20050;-68
2021/04/15 02:12:25;;;;;;;4.75;2.20;;;1.80;82.70;;;;;;5852739;40;20051;-69
2021/04/15 02:16:36;;;;;;;3.80;2.13;;;1.80;83.00;;;;;;5843099;40;20055;-68
2021/04/15 02:20:40;;;;;;;6.13;2.77;;;1.80;83.10;;;;;;5857373;40;20059;-68
2021/04/15 02:24:55;;;;;;;5.22;2.70;;;1.70;82.80;;;;;;5860189;40;20494;-68
2021/04/15 02:29:11;;;;;;;4.70;2.60;;;1.70;81.90;;;;;;5854797;40;20342;-68
2021/04/15 02:33:34;;;;;;;4.68;2.22;;;1.70;82.80;;;;;;5859513;40;20097;-67
2021/04/15 02:37:45;;;;;;;3.88;1.98;;;1.70;82.90;;;;;;5855735;40;20073;-67
2021/04/15 02:41:51;;;;;;;5.40;2.20;;;1.60;82.90;;;;;;5851172;40;20054;-67
2021/04/15 02:45:57;;;;;;;3.92;2.00;;;1.60;82.80;;;;;;5839344;40;20355;-67
2021/04/15 02:50:10;;;;;;;4.35;2.08;;;1.50;81.80;;;;;;5847461;40;20090;-65
2021/04/15 02:54:26;;;;;;;4.32;1.92;;;1.50;82.90;;;;;;5848575;40;20271;-66
2021/04/15 02:58:42;;;;;;;4.95;2.20;;;1.50;82.90;;;;;;5854697;40;20054;-66
2021/04/15 03:02:59;;;;;;;5.60;2.13;;;1.40;82.90;;;;;;5863010;40;20054;-67
2021/04/15 03:07:05;;;;;;;7.32;2.25;;;1.40;82.90;;;;;;5860415;40;20054;-67
2021/04/15 03:11:43;;;;;;;4.68;2.42;;;1.40;82.90;;;;;;5851956;40;20050;-66
2021/04/15 03:15:53;;;;;;;6.93;2.53;;;1.30;82.90;;;;;;5852287;40;20067;-66
2021/04/15 03:20:01;;;;;;;4.47;2.45;;;1.30;82.90;;;;;;5852197;40;20046;-66
2021/04/15 03:24:11;;;;;;;4.95;2.65;;;1.30;83.00;;;;;;5852473;40;20046;-66
2021/04/15 03:28:23;;;;;;;4.22;2.40;;;1.20;82.80;;;;;;5848893;40;21566;-66
2021/04/15 03:32:50;;;;;;;5.95;3.30;;;1.20;82.90;;;;;;5848792;40;20054;-67
2021/04/15 03:36:57;;;;;;;5.25;2.60;;;1.20;83.00;;;;;;5835149;40;20133;-67
2021/04/15 03:41:11;;;;;;;5.90;3.08;;;1.10;82.90;;;;;;5849592;40;20054;-67
2021/04/15 03:45:40;;;;;;;4.85;2.65;;;1.10;81.90;;;;;;5854380;40;20124;-68
2021/04/15 03:49:57;;;;;;;4.45;2.60;;;1.10;82.90;;;;;;5847802;40;20067;-66
2021/04/15 03:54:06;;;;;;;5.45;3.33;;;1.00;82.80;;;;;;5851087;40;20054;-67
2021/04/15 03:58:19;;;;;;;7.18;3.67;;;1.00;82.80;;;;;;5848740;40;20066;-66
2021/04/15 04:02:32;;;;;;;4.63;2.60;;;1.00;82.80;;;;;;5851118;40;20038;-68
2021/04/15 04:06:42;;;;;;;5.57;2.60;;;0.90;82.60;;;;;;5861072;40;20039;-68
2021/04/15 04:10:57;;;;;;;5.05;2.90;;;0.90;82.60;;;;;;5862032;40;20043;-67
2021/04/15 04:15:16;;;;;;;7.45;2.95;;;0.90;82.70;;;;;;5861890;40;20058;-67
2021/04/15 04:19:46;;;;;;;5.32;3.08;;;0.80;82.80;;;;;;5862277;40;20083;-66
2021/04/15 04:24:02;;;;;;;4.80;2.85;;;0.80;82.90;;;;;;5848832;40;20136;-67
2021/04/15 04:28:20;;;;;;;5.80;2.90;;;0.80;82.70;;;;;;5858439;40;20733;-67
2021/04/15 04:32:26;;;;;;;6.80;3.47;;;0.80;82.80;;;;;;5860666;40;20477;-66
2021/04/15 04:36:35;;;;;;;4.35;2.53;;;0.70;82.60;;;;;;5849387;40;20071;-67
2021/04/15 04:40:53;;;;;;;4.50;2.35;;;0.70;82.60;;;;;;5852245;40;20058;-67
2021/04/15 04:45:01;;;;;;;5.53;2.45;;;0.70;82.60;;;;;;5852901;40;20283;-67
2021/04/15 04:49:26;;;;;;;6.47;2.28;;;0.70;82.50;;;;;;5850885;40;20054;-66
2021/04/15 04:53:35;;;;;;;3.88;2.30;;;0.70;82.60;;;;;;5857442;40;20046;-67
2021/04/15 04:57:46;;;;;;;4.80;2.70;;;0.70;82.50;;;;;;5860151;40;20345;-67
2021/04/15 05:01:50;;;;;;;4.22;2.38;;;0.70;82.60;;;;;;5833223;40;20043;-67
2021/04/15 05:06:03;;;;;;;5.68;2.72;;;0.60;82.60;;;;;;5844101;40;20062;-66
2021/04/15 05:10:21;;;;;;;4.07;2.22;;;0.60;82.90;;;;;;5831330;40;20476;-67
2021/04/15 05:14:28;;;;;;;6.95;2.40;;;0.60;82.90;;;;;;5842343;40;20068;-67
2021/04/15 05:18:32;;;;;;;6.18;2.50;;;0.80;84.60;;;;;;5840830;40;20647;-67
2021/04/15 05:22:57;;;;;;;4.72;2.42;;;0.80;83.60;;;;;;5833224;40;20058;-67
2021/04/15 05:27:03;;;;;;;4.57;2.03;;;0.90;83.80;;;;;;5834212;40;20122;-66
2021/04/15 05:31:12;;;;;;;5.55;2.47;;;1.00;86.90;;;;;;5831583;40;20419;-67
2021/04/15 05:35:27;;;;;;;4.72;2.45;;;1.30;86.60;;;;;;5842363;40;20289;-67
2021/04/15 05:39:31;;;;;;;4.30;2.38;;;1.30;84.60;;;;;;5844019;40;20054;-67
2021/04/15 05:43:49;;;;;;;5.65;2.58;;;1.40;84.20;;;;;;5843869;40;20051;-67
2021/04/15 05:48:07;;;;;;;4.32;2.30;;;1.60;84.10;;;;;;5843723;40;20068;-67
2021/04/15 05:52:27;;;;;;;3.75;2.17;;;1.80;84.90;;;;;;5843001;40;20066;-69
2021/04/15 05:57:00;;;;;;;4.88;2.50;;;2.00;84.30;;;;;;5841207;40;20050;-68
2021/04/15 06:01:24;;;;;;;4.88;2.67;;;2.30;84.20;;;;;;5845334;40;20050;-68
2021/04/15 06:05:39;;;;;;;4.38;2.35;;;2.70;84.10;;;;;;5842359;40;20495;-68
2021/04/15 06:09:44;;;;;;;5.18;2.80;;;3.00;84.80;;;;;;5849122;40;20063;-67
2021/04/15 06:13:57;;;;;;;3.50;2.33;;;3.30;84.20;;;;;;5849815;40;20054;-68
2021/04/15 06:18:22;;;;;;;4.70;2.25;;;3.50;85.00;;;;;;5851089;40;20058;-68
2021/04/15 06:22:34;;;;;;;6.32;2.20;;;3.80;85.80;;;;;;5851187;40;20062;-67
2021/04/15 06:26:47;;;;;;;3.83;2.17;;;4.00;85.50;;;;;;5850475;40;20045;-68
2021/04/15 06:31:08;;;;;;;5.75;2.22;;;4.30;84.40;;;;;;5851571;40;20860;-67
2021/04/15 06:35:23;;;;;;;5.50;2.50;;;4.50;84.50;;;;;;5849882;40;20061;-68
2021/04/15 06:39:36;;;;;;;4.15;1.90;;;4.70;85.40;;;;;;5849912;40;20815;-69
2021/04/15 06:44:03;;;;;;;5.40;2.03;;;4.90;85.70;;;;;;5849792;40;20062;-68
2021/04/15 06:48:37;;;;;;;4.68;1.70;;;5.10;84.90;;;;;;5853073;40;20043;-69
2021/04/15 06:53:15;;;;;;;4.57;2.17;;;5.40;85.00;;;;;;5852031;40;20054;-68
2021/04/15 06:58:03;;;;;;;4.95;1.92;;;5.60;84.80;;;;;;5854384;40;20659;-68
2021/04/15 07:02:33;;;;;;;3.00;1.85;;;5.70;84.50;;;;;;5862064;40;20133;-67
2021/04/15 07:06:56;;;;;;;4.30;2.20;;;5.90;84.30;;;;;;5855757;40;20057;-71
2021/04/15 07:11:38;;;;;;;3.30;1.77;;;6.10;84.10;;;;;;5859591;40;20524;-71
2021/04/15 07:16:00;;;;;;;2.13;1.02;;;6.30;84.30;;;;;;5860020;40;20125;-71
2021/04/15 07:20:35;;;;;;;4.57;1.40;;;6.40;83.80;;;;;;5855868;40;20146;-71
2021/04/15 07:25:01;;;;;;;3.17;1.50;;;6.50;84.00;;;;;;5854584;40;20042;-71
2021/04/15 07:29:37;;;;;;;7.45;1.55;;;6.70;83.60;;;;;;5858475;40;20062;-71
2021/04/15 07:34:06;;;;;;;2.22;1.20;;;6.90;82.90;;;;;;5847693;40;20121;-74
2021/04/15 07:38:21;;;;;;;2.15;1.35;;;7.10;82.20;;;;;;5854474;40;20054;-74
2021/04/15 07:42:41;;;;;;;1.13;0.73;;;7.30;81.80;;;;;;5848200;40;20439;-73
2021/04/15 07:46:58;;;;;;;2.00;1.02;;;7.40;81.10;;;;;;5859837;40;20486;-73
2021/04/15 07:51:38;;;;;;;3.33;1.10;;;7.60;81.70;;;;;;5857880;40;20050;-75
2021/04/15 07:56:20;;;;;;;3.30;1.20;;;7.90;80.80;;;;;;5865618;40;20467;-73
2021/04/15 08:00:42;;;;;;;2.10;1.10;;;8.10;80.10;;;;;;5867524;40;20054;-73
2021/04/15 08:05:04;;;;;;;1.85;1.20;;;8.20;78.30;;;;;;5847872;40;20062;-73
2021/04/15 08:09:30;;;;;;;3.03;1.15;;;8.30;80.20;;;;;;5855374;40;20098;-72
2021/04/15 08:14:02;;;;;;;1.63;0.98;;;8.50;79.00;;;;;;5845536;40;20050;-71
2021/04/15 08:18:32;;;;;;;4.22;1.40;;;8.60;78.50;;;;;;5855567;40;20826;-71
2021/04/15 08:23:19;;;;;;;2.22;0.95;;;8.70;76.40;;;;;;5853392;40;20114;-72
2021/04/15 08:28:05;;;;;;;3.33;1.10;;;8.80;77.80;;;;;;5852244;40;20042;-71
2021/04/15 08:32:37;;;;;;;3.88;1.10;;;8.90;72.60;;;;;;5851303;40;20088;-72
2021/04/15 08:37:15;;;;;;;2.90;1.25;;;8.90;76.10;;;;;;5858338;40;20054;-72
2021/04/15 08:41:43;;;;;;;3.33;1.00;;;9.10;76.00;;;;;;5854813;40;20058;-71
2021/04/15 08:46:09;;;;;;;2.10;0.95;;;9.30;75.50;;;;;;5857231;40;20161;-72
2021/04/15 08:50:57;;;;;;;3.95;0.70;;;9.40;73.30;;;;;;5853903;40;20083;-72
2021/04/15 08:55:24;;;;;;;2.22;0.60;;;9.50;73.00;;;;;;5804148;40;20055;-72
2021/04/15 08:59:55;;;;;;;1.58;0.52;;;9.30;70.50;;;;;;5833942;40;20074;-71
2021/04/15 09:04:03;;;;;;;1.60;0.60;;;9.50;71.20;;;;;;5847272;40;20338;-71
2021/04/15 09:08:25;;;;;;;2.17;0.70;;;9.60;71.40;;;;;;5853459;40;20161;-72
2021/04/15 09:13:02;;;;;;;1.27;0.80;;;9.60;71.20;;;;;;5859438;40;20046;-71
2021/04/15 09:17:39;;;;;;;1.25;0.50;;;9.90;71.40;;;;;;5866342;40;20090;-72
2021/04/15 09:22:13;;;;;;;1.20;0.52;;;10.10;68.50;;;;;;5851002;40;20592;-72
2021/04/15 09:26:46;;;;;;;1.10;0.47;;;10.10;63.50;;;;;;5850918;40;20101;-72
2021/04/15 09:31:22;;;;;;;0.47;0.28;;;10.00;57.90;;;;;;5851145;40;20049;-72
2021/04/15 09:35:33;;;;;;;0.73;0.50;;;10.00;56.30;;;;;;5835476;40;20080;-67
2021/04/15 09:40:06;;;;;;;1.40;0.50;;;10.00;63.70;;;;;;5854299;40;20050;-67
2021/04/15 09:44:38;;;;;;;1.20;0.50;;;10.20;64.00;;;;;;5849904;40;20064;-67
2021/04/15 09:49:29;;;;;;;3.53;0.40;;;10.40;64.40;;;;;;5852439;40;20046;-68
2021/04/15 09:53:58;;;;;;;2.05;0.40;;;10.40;51.70;;;;;;5819961;40;20058;-68
2021/04/15 09:58:22;;;;;;;1.05;0.40;;;10.40;62.90;;;;;;5858960;40;20362;-68
2021/04/15 10:02:29;;;;;;;1.55;0.40;;;10.50;58.30;;;;;;5858660;40;20054;-68
2021/04/15 10:06:42;;;;;;;0.40;0.30;;;10.60;59.00;;;;;;5849059;40;20390;-68
2021/04/15 10:10:58;;;;;;;1.40;0.43;;;10.60;58.20;;;;;;5854202;40;20046;-68
2021/04/15 10:15:41;;;;;;;0.63;0.30;;;10.70;58.40;;;;;;5851063;40;20073;-68
2021/04/15 10:20:20;;;;;;;2.00;0.68;;;10.10;54.20;;;;;;5849727;40;20047;-68
2021/04/15 10:24:32;;;;;;;1.58;0.30;;;10.70;58.50;;;;;;5850741;40;20054;-68
2021/04/15 10:29:13;;;;;;;1.58;0.30;;;10.80;57.30;;;;;;5846227;40;20493;-68
2021/04/15 10:33:39;;;;;;;2.30;0.47;;;11.30;53.00;;;;;;5839626;40;20070;-67
2021/04/15 10:38:11;;;;;;;1.27;0.45;;;10.60;55.70;;;;;;5842599;40;20053;-67
2021/04/15 10:42:34;;;;;;;0.67;0.40;;;10.70;59.00;;;;;;5846874;40;20520;-68
2021/04/15 10:47:11;;;;;;;1.58;0.30;;;10.90;54.60;;;;;;5848334;40;20081;-67
2021/04/15 10:51:45;;;;;;;0.38;0.20;;;10.90;58.20;;;;;;5840820;40;20339;-67
2021/04/15 10:56:03;;;;;;;;;;;11.10;51.20;;;;;;5849604;40;20383;-68
2021/04/15 11:00:21;;;;;;;0.85;0.40;;;11.10;47.30;;;;;;5850142;40;20202;-68
2021/04/15 11:04:28;;;;;;;0.93;0.50;;;10.90;55.50;;;;;;5831851;40;20063;-68
2021/04/15 11:08:37;;;;;;;1.60;0.40;;;10.70;57.90;;;;;;5840313;40;20050;-67
2021/04/15 11:12:41;;;;;;;1.70;0.40;;;10.70;57.10;;;;;;5835308;40;20051;-69
2021/04/15 11:16:51;;;;;;;0.40;0.25;;;10.80;57.80;;;;;;5833914;40;20056;-67
2021/04/15 11:21:24;;;;;;;1.70;0.55;;;11.00;57.30;;;;;;5835471;40;20059;-67
2021/04/15 11:25:36;;;;;;;1.00;0.47;;;10.80;52.80;;;;;;5835260;40;20090;-70
2021/04/15 11:29:46;;;;;;;2.40;0.40;;;10.70;57.30;;;;;;5846758;40;20612;-75
2021/04/15 11:34:03;;;;;;;0.85;0.40;;;10.60;58.50;;;;;;5855241;40;20494;-76
2021/04/15 11:38:19;;;;;;;2.20;0.40;;;10.20;56.30;;;;;;5838291;40;20047;-77
2021/04/15 11:42:40;;;;;;;1.75;0.40;;;9.90;55.20;;;;;;5837440;40;20074;-75
2021/04/15 11:46:47;;;;;;;1.75;0.57;;;9.90;54.00;;;;;;5842610;40;20142;-77
2021/04/15 11:51:14;;;;;;;2.33;0.90;;;10.20;55.90;;;;;;5855014;40;20053;-74
2021/04/15 11:55:32;;;;;;;1.88;0.75;;;10.20;53.80;;;;;;5844387;40;20438;-74
2021/04/15 11:59:38;;;;;;;2.13;0.93;;;9.90;56.30;;;;;;5850032;40;20050;-73
2021/04/15 12:04:01;;;;;;;1.67;0.80;;;9.80;58.90;;;;;;5845582;40;20063;-73
2021/04/15 12:08:28;;;;;;;1.92;0.75;;;9.80;59.30;;;;;;5841694;40;20055;-73
2021/04/15 12:12:33;;;;;;;1.60;0.90;;;9.90;54.50;;;;;;5849441;40;20050;-73
2021/04/15 12:17:08;;;;;;;2.35;0.85;;;10.00;57.60;;;;;;5841212;40;20066;-73
2021/04/15 12:21:47;;;;;;;2.15;0.90;;;10.20;54.20;;;;;;5850567;40;20059;-74
2021/04/15 12:26:17;;;;;;;2.20;0.95;;;10.50;54.80;;;;;;5847923;40;20054;-73
2021/04/15 12:30:32;;;;;;;2.15;1.05;;;10.40;56.00;;;;;;5837572;40;20058;-73
2021/04/15 12:34:46;;;;;;;2.05;0.82;;;10.10;53.00;;;;;;5834019;40;20304;-67
2021/04/15 12:39:06;;;;;;;1.85;0.90;;;10.00;56.80;;;;;;5838800;40;20319;-68
2021/04/15 12:43:24;;;;;;;2.78;1.00;;;10.10;56.90;;;;;;5837502;40;20345;-67
2021/04/15 12:47:33;;;;;;;2.67;0.60;;;10.00;58.00;;;;;;5842688;40;20043;-68
2021/04/15 12:51:40;;;;;;;3.70;0.90;;;10.10;59.00;;;;;;5840618;40;20142;-67
2021/04/15 12:55:50;;;;;;;2.58;0.90;;;10.00;58.70;;;;;;5841706;40;20365;-67
2021/04/15 13:00:01;;;;;;;2.20;1.00;;;9.80;58.80;;;;;;5847275;40;20038;-68
2021/04/15 13:04:31;;;;;;;0.73;0.40;;;9.80;58.10;;;;;;5856136;40;20144;-67
2021/04/15 13:08:43;;;;;;;2.38;0.60;;;9.70;53.30;;;;;;5861050;40;20049;-68
2021/04/15 13:12:52;;;;;;;1.52;0.45;;;9.60;56.20;;;;;;5859226;40;20050;-69
2021/04/15 13:16:57;;;;;;;1.65;0.63;;;9.70;56.40;;;;;;5849372;40;20414;-67
2021/04/15 13:21:24;;;;;;;2.05;0.75;;;9.70;56.20;;;;;;5853175;40;20087;-67
2021/04/15 13:25:32;;;;;;;1.30;0.68;;;9.80;54.30;;;;;;5857064;40;20114;-67
2021/04/15 13:30:17;;;;;;;2.67;0.75;;;9.80;55.60;;;;;;5859739;40;20431;-68
2021/04/15 13:34:35;;;;;;;1.05;0.40;;;9.90;52.90;;;;;;5851703;40;20173;-67
2021/04/15 13:38:57;;;;;;;2.13;0.68;;;10.20;56.60;;;;;;5853026;40;20048;-67
2021/04/15 13:43:40;;;;;;;1.43;0.63;;;10.20;54.10;;;;;;5856871;40;20055;-67
2021/04/15 13:47:47;;;;;;;2.20;0.95;;;10.20;47.20;;;;;;5849589;40;20081;-68
2021/04/15 13:52:10;;;;;;;1.15;0.50;;;10.00;54.80;;;;;;5845148;40;20050;-68
2021/04/15 13:56:32;;;;;;;1.42;0.60;;;10.10;57.40;;;;;;5843786;40;20085;-68
2021/04/15 14:00:47;;;;;;;2.80;0.60;;;10.10;48.90;;;;;;5858790;40;20049;-68
2021/04/15 14:04:57;;;;;;;2.50;0.77;;;10.00;56.70;;;;;;5857006;40;20494;-66
2021/04/15 14:09:27;;;;;;;3.13;0.75;;;10.10;55.50;;;;;;5856911;40;20057;-68
2021/04/15 14:13:40;;;;;;;3.25;0.60;;;10.20;51.30;;;;;;5853182;40;20049;-67
2021/04/15 14:17:45;;;;;;;1.27;0.60;;;10.30;52.90;;;;;;5856392;40;20051;-67
2021/04/15 14:21:51;;;;;;;0.88;0.50;;;10.20;52.70;;;;;;5855146;40;20196;-68
2021/04/15 14:26:19;;;;;;;2.10;0.80;;;10.00;53.60;;;;;;5853028;40;20055;-67
2021/04/15 14:30:26;;;;;;;1.52;0.50;;;9.90;52.40;;;;;;5855609;40;20057;-69
2021/04/15 14:34:39;;;;;;;1.30;0.70;;;10.00;53.30;;;;;;5856363;40;20070;-68
2021/04/15 14:38:46;;;;;;;3.08;0.90;;;9.90;53.30;;;;;;5856149;40;20050;-68
2021/04/15 14:42:51;;;;;;;1.10;0.52;;;10.00;53.40;;;;;;5845142;40;20047;-67
2021/04/15 14:47:05;;;;;;;2.83;0.70;;;10.00;54.30;;;;;;5854582;40;20357;-67
2021/04/15 14:51:21;;;;;;;1.55;0.80;;;10.10;55.90;;;;;;5856665;40;20086;-67
2021/04/15 14:55:30;;;;;;;3.55;1.58;;;10.10;54.20;;;;;;5857109;40;20674;-68
2021/04/15 14:59:41;;;;;;;2.65;0.75;;;9.90;52.50;;;;;;5858380;40;20411;-68
2021/04/15 15:03:46;;;;;;;1.00;0.40;;;9.70;52.90;;;;;;5855506;40;20797;-66
2021/04/15 15:07:55;;;;;;;4.10;0.70;;;9.70;52.00;;;;;;5858296;40;20061;-68
2021/04/15 15:12:07;;;;;;;1.83;0.50;;;9.60;52.70;;;;;;5856477;40;20077;-68
2021/04/15 15:16:16;;;;;;;0.93;0.52;;;9.50;53.80;;;;;;5853160;40;20074;-68
2021/04/15 15:20:31;;;;;;;1.85;0.68;;;9.70;52.50;;;;;;5859190;40;20050;-67
2021/04/15 15:24:43;;;;;;;0.70;0.40;;;9.70;51.30;;;;;;5851620;40;20058;-67
2021/04/15 15:28:59;;;;;;;1.65;0.55;;;9.80;52.30;;;;;;5850494;40;20326;-68
2021/04/15 15:33:18;;;;;;;1.73;0.35;;;9.80;52.50;;;;;;5855626;40;20046;-68
2021/04/15 15:37:32;;;;;;;2.17;0.60;;;9.70;49.30;;;;;;5855094;40;20046;-68
2021/04/15 15:41:53;;;;;;;1.33;0.55;;;9.70;53.00;;;;;;5859344;40;20757;-69
2021/04/15 15:46:17;;;;;;;2.72;0.40;;;9.60;53.10;;;;;;5856831;40;20046;-68
2021/04/15 15:50:26;;;;;;;1.53;0.50;;;9.70;51.30;;;;;;5854491;40;20350;-68
2021/04/15 15:54:36;;;;;;;1.10;0.50;;;9.70;52.80;;;;;;5858187;40;20061;-68
2021/04/15 15:58:40;;;;;;;1.35;0.52;;;9.70;53.20;;;;;;5851739;40;20094;-69
2021/04/15 16:02:49;;;;;;;1.58;0.50;;;9.70;52.80;;;;;;5857642;40;20674;-68
2021/04/15 16:07:43;;;;;;;2.13;0.60;;;9.70;52.50;;;;;;5859550;40;20046;-68
2021/04/15 16:11:48;;;;;;;1.38;0.50;;;9.70;52.90;;;;;;5852486;40;20402;-67
2021/04/15 16:15:56;;;;;;;2.22;0.70;;;9.70;52.40;;;;;;5837748;40;20146;-67
2021/04/15 16:20:00;;;;;;;1.63;0.80;;;9.70;52.20;;;;;;5839031;40;20058;-67
2021/04/15 16:24:31;;;;;;;4.20;0.85;;;9.70;53.00;;;;;;5831151;40;20066;-68
2021/04/15 16:28:39;;;;;;;1.33;0.75;;;9.60;50.80;;;;;;5833350;40;20080;-68
2021/04/15 16:32:45;;;;;;;3.17;0.90;;;9.60;52.60;;;;;;5837531;40;20043;-68
2021/04/15 16:36:53;;;;;;;2.30;1.20;;;9.60;52.70;;;;;;5841537;40;20058;-68
2021/04/15 16:40:57;;;;;;;2.75;1.35;;;9.60;53.10;;;;;;5795764;40;20090;-67
2021/04/15 16:45:05;;;;;;;3.67;2.95;;;9.60;52.30;;;;;;5820628;40;22693;-67
2021/04/15 16:49:09;;;;;;;2.05;1.10;;;9.60;52.40;;;;;;5835146;40;20081;-68
2021/04/15 16:53:18;;;;;;;2.17;0.90;;;9.50;52.70;;;;;;5840506;40;20038;-68
2021/04/15 16:57:25;;;;;;;2.10;0.70;;;9.40;52.20;;;;;;5839697;40;20039;-68
2021/04/15 17:01:30;;;;;;;2.25;1.40;;;9.40;52.00;;;;;;5833061;40;21260;-68
2021/04/15 17:05:35;;;;;;;2.40;0.60;;;9.30;51.90;;;;;;5841332;40;20061;-68
2021/04/15 17:09:42;;;;;;;1.52;0.60;;;9.30;52.10;;;;;;5841804;40;20291;-68
2021/04/15 17:13:49;;;;;;;1.48;0.50;;;9.20;52.90;;;;;;5830466;40;20610;-67
2021/04/15 17:17:53;;;;;;;2.58;1.10;;;9.10;51.70;;;;;;5855340;40;20311;-67
2021/04/15 17:22:00;;;;;;;2.33;0.93;;;9.10;52.20;;;;;;5856924;40;20065;-68
2021/04/15 17:26:10;;;;;;;1.70;0.85;;;9.10;52.40;;;;;;5855144;40;20334;-68
2021/04/15 17:30:16;;;;;;;49.83;26.70;;;9.00;52.40;;;;;;5855766;40;20066;-67
2021/04/15 17:34:23;;;;;;;5.47;2.47;;;8.90;53.60;;;;;;5855431;40;20360;-67
2021/04/15 17:38:31;;;;;;;7.50;4.47;;;8.90;53.90;;;;;;5857395;40;20053;-67
2021/04/15 17:42:39;;;;;;;2.20;0.88;;;8.80;54.00;;;;;;5852269;40;20070;-68
2021/04/15 17:46:45;;;;;;;1.50;0.80;;;8.80;53.90;;;;;;5852329;40;20078;-66
2021/04/15 17:51:00;;;;;;;1.25;0.70;;;8.60;54.50;;;;;;5848733;40;20051;-68
2021/04/15 17:55:10;;;;;;;2.65;0.98;;;8.70;54.90;;;;;;5856446;40;20069;-67
2021/04/15 17:59:17;;;;;;;4.10;1.30;;;8.70;55.10;;;;;;5855298;40;20042;-67
2021/04/15 18:03:24;;;;;;;4.90;1.75;;;8.60;55.90;;;;;;5856801;40;20062;-68
2021/04/15 18:07:29;;;;;;;4.30;2.80;;;8.60;56.20;;;;;;5852565;40;20055;-68
2021/04/15 18:11:36;;;;;;;3.92;1.70;;;8.50;55.80;;;;;;5852632;40;20073;-67
2021/04/15 18:15:41;;;;;;;2.63;1.88;;;8.40;56.30;;;;;;5839861;40;20049;-68
2021/04/15 18:19:45;;;;;;;3.70;1.38;;;8.40;56.80;;;;;;5853010;40;20069;-67
2021/04/15 18:23:50;;;;;;;2.72;1.75;;;8.40;57.10;;;;;;5856562;40;20066;-67
2021/04/15 18:27:55;;;;;;;3.95;2.20;;;8.30;57.60;;;;;;5858645;40;20050;-66
2021/04/15 18:32:00;;;;;;;3.78;1.60;;;8.30;57.70;;;;;;5848272;40;20440;-66
2021/04/15 18:36:03;;;;;;;6.15;3.15;;;8.20;58.30;;;;;;5858203;40;20080;-66
2021/04/15 18:40:13;;;;;;;5.55;2.40;;;8.20;58.70;;;;;;5848767;40;20779;-67
2021/04/15 18:44:17;;;;;;;4.97;2.10;;;8.20;59.20;;;;;;5861327;40;20050;-70
2021/04/15 18:48:25;;;;;;;8.98;6.18;;;8.10;58.80;;;;;;5859819;40;20062;-70
2021/04/15 18:52:32;;;;;;;8.02;3.35;;;8.00;59.20;;;;;;5863201;40;20056;-70
2021/04/15 18:56:37;;;;;;;47.30;22.73;;;7.90;59.80;;;;;;5862997;40;20339;-70
2021/04/15 19:00:47;;;;;;;59.17;27.55;;;7.80;60.20;;;;;;5863959;40;20039;-70
2021/04/15 19:04:51;;;;;;;44.38;21.05;;;7.70;60.50;;;;;;5853283;40;20434;-70
2021/04/15 19:08:58;;;;;;;31.23;12.82;;;7.60;60.90;;;;;;5862366;40;20082;-70
2021/04/15 19:13:08;;;;;;;4.63;2.40;;;7.60;61.20;;;;;;5860768;40;20058;-69
2021/04/15 19:17:15;;;;;;;6.05;2.20;;;7.50;61.50;;;;;;5861271;40;20138;-70
2021/04/15 19:21:22;;;;;;;6.28;2.45;;;7.40;61.80;;;;;;5863120;40;20279;-71
2021/04/15 19:25:31;;;;;;;7.97;2.83;;;7.40;62.10;;;;;;5860679;40;20493;-70
2021/04/15 19:29:35;;;;;;;3.28;1.40;;;7.30;62.20;;;;;;5856038;40;20056;-70
2021/04/15 19:33:42;;;;;;;3.67;1.83;;;7.30;62.50;;;;;;5861475;40;20062;-69
2021/04/15 19:37:47;;;;;;;3.03;1.10;;;7.20;62.50;;;;;;5860283;40;20042;-70
2021/04/15 19:41:55;;;;;;;7.63;2.00;;;7.20;63.00;;;;;;5851241;40;20052;-71
2021/04/15 19:45:59;;;;;;;4.70;1.90;;;7.10;63.20;;;;;;5855758;40;20058;-69
2021/04/15 19:50:12;;;;;;;3.50;1.80;;;7.00;63.50;;;;;;5861891;40;20054;-70
2021/04/15 19:54:16;;;;;;;5.75;1.90;;;7.00;63.80;;;;;;5862676;40;20069;-69
2021/04/15 19:58:26;;;;;;;6.72;3.38;;;6.90;63.90;;;;;;5861018;40;20058;-71
2021/04/15 20:02:31;;;;;;;6.93;3.75;;;6.90;64.20;;;;;;5853982;40;20058;-71
2021/04/15 20:06:33;;;;;;;8.35;4.18;;;6.80;65.00;;;;;;5861360;40;20066;-70
2021/04/15 20:10:42;;;;;;;6.65;2.50;;;6.70;64.60;;;;;;5863430;40;20410;-70
2021/04/15 20:14:46;;;;;;;4.70;2.30;;;6.60;64.90;;;;;;5853543;40;20066;-70
2021/04/15 20:18:56;;;;;;;5.20;3.10;;;6.50;65.00;;;;;;5852555;40;20054;-70
2021/04/15 20:23:02;;;;;;;10.82;6.57;;;6.40;65.30;;;;;;5850578;40;20341;-70
2021/04/15 20:27:07;;;;;;;16.05;8.90;;;6.30;65.40;;;;;;5862369;40;20050;-70
2021/04/15 20:31:11;;;;;;;11.25;6.72;;;6.20;65.60;;;;;;5861442;40;20043;-70
2021/04/15 20:35:18;;;;;;;10.32;5.75;;;6.10;65.70;;;;;;5861749;40;20070;-70
2021/04/15 20:39:23;;;;;;;8.27;4.10;;;6.00;66.60;;;;;;5852100;40;20063;-70
2021/04/15 20:43:28;;;;;;;7.85;3.10;;;5.90;66.10;;;;;;5860517;40;20066;-70
2021/04/15 20:47:34;;;;;;;5.57;2.92;;;5.80;66.20;;;;;;5862250;40;20438;-70
2021/04/15 20:51:38;;;;;;;7.05;3.10;;;5.80;66.30;;;;;;5851757;40;20081;-70
2021/04/15 20:55:43;;;;;;;8.43;3.40;;;5.80;66.40;;;;;;5859735;40;20592;-70
2021/04/15 20:59:49;;;;;;;6.90;2.80;;;5.70;66.50;;;;;;5852127;40;20038;-69
2021/04/15 21:03:55;;;;;;;6.47;2.80;;;5.70;66.70;;;;;;5850983;40;20831;-69
2021/04/15 21:08:03;;;;;;;7.53;3.28;;;5.60;66.80;;;;;;5851824;40;20072;-69
2021/04/15 21:12:08;;;;;;;10.27;4.50;;;5.60;66.80;;;;;;5861170;40;20129;-70
2021/04/15 21:16:12;;;;;;;6.53;3.20;;;5.50;66.90;;;;;;5859897;40;20068;-69
2021/04/15 21:20:22;;;;;;;7.70;4.38;;;5.40;67.10;;;;;;5860592;40;20042;-69
2021/04/15 21:24:26;;;;;;;7.97;4.53;;;5.40;67.20;;;;;;5860164;40;20058;-69
2021/04/15 21:28:28;;;;;;;9.00;3.95;;;5.30;67.40;;;;;;5860782;40;20429;-70
2021/04/15 21:32:32;;;;;;;8.55;4.43;;;5.20;67.40;;;;;;5861535;40;20074;-69
2021/04/15 21:36:36;;;;;;;7.07;3.00;;;4.70;67.30;;;;;;5854372;40;20481;-69
2021/04/15 21:40:40;;;;;;;4.93;2.50;;;5.10;67.60;;;;;;5849589;40;20327;-69
2021/04/15 21:44:47;;;;;;;5.90;2.83;;;5.10;67.70;;;;;;5857240;40;20490;-69
2021/04/15 21:48:53;;;;;;;3.67;1.70;;;5.10;67.70;;;;;;5858284;40;20058;-69
2021/04/15 21:53:00;;;;;;;3.45;1.80;;;5.10;67.80;;;;;;5857037;40;20073;-69
2021/04/15 21:57:05;;;;;;;3.50;1.70;;;5.00;67.80;;;;;;5849728;40;20374;-69
2021/04/15 22:01:13;;;;;;;3.95;1.88;;;4.90;67.90;;;;;;5857719;40;20054;-70
2021/04/15 22:05:18;;;;;;;4.72;2.40;;;4.90;68.00;;;;;;5853914;40;20484;-70
2021/04/15 22:09:27;;;;;;;8.25;4.10;;;4.80;67.90;;;;;;5859314;40;20054;-69
2021/04/15 22:13:32;;;;;;;6.20;2.88;;;4.70;68.00;;;;;;5857070;40;20110;-68
2021/04/15 22:17:37;;;;;;;9.27;4.45;;;4.70;68.00;;;;;;5859675;40;20050;-69
2021/04/15 22:21:45;;;;;;;9.00;3.92;;;4.60;68.10;;;;;;5859221;40;20046;-69